Time;durP1;ratioP1;P1;durP2;ratioP2;P2;SDS_P1;SDS_P2;PMS_P1;PMS_P2;Temp;Humidity;BMP_temperature;BMP_pressure;BME280_temperature;BME280_humidity;BME280_pressure;Samples;Min_cycle;Max_cycle;Signal;HPM_P1;HPM_P2
2021/05/27 00:01:28;;;;;;;4.82;3.00;;;;;;;;;;5020659;28;20045;-59
2021/05/27 00:03:54;;;;;;;8.15;2.90;;;;;;;;;;5036096;28;20053;-59
2021/05/27 00:06:20;;;;;;;5.40;2.58;;;;;;;;;;5053532;28;20049;-59
2021/05/27 00:08:47;;;;;;;6.15;3.17;;;;;;;;;;5053426;28;20116;-59
2021/05/27 00:11:13;;;;;;;7.63;3.60;;;;;;;;;;5053160;28;20576;-59
2021/05/27 00:13:40;;;;;;;5.05;2.50;;;;;;;;;;5052812;28;20203;-59
2021/05/27 00:16:06;;;;;;;4.20;2.80;;;;;;;;;;5035784;28;20103;-59
2021/05/27 00:18:32;;;;;;;6.25;2.90;;;;;;;;;;5040925;28;20034;-58
2021/05/27 00:20:58;;;;;;;5.38;3.25;;;;;;;;;;5050929;28;20064;-59
2021/05/27 00:23:25;;;;;;;8.55;2.75;;;;;;;;;;5053387;28;20399;-59
2021/05/27 00:25:51;;;;;;;7.72;2.72;;;;;;;;;;5053119;28;20045;-59
2021/05/27 00:28:17;;;;;;;4.82;2.85;;;;;;;;;;5053237;28;20081;-59
2021/05/27 00:30:44;;;;;;;6.03;2.65;;;;;;;;;;5053955;28;20045;-57
2021/05/27 00:33:10;;;;;;;5.03;2.30;;;;;;;;;;5052928;28;20041;-57
2021/05/27 00:35:36;;;;;;;6.22;2.40;;;;;;;;;;5053053;28;20110;-58
2021/05/27 00:38:03;;;;;;;5.45;2.47;;;;;;;;;;5051926;28;20560;-57
2021/05/27 00:40:29;;;;;;;5.70;2.70;;;;;;;;;;5038350;28;20116;-59
2021/05/27 00:42:55;;;;;;;5.63;2.75;;;;;;;;;;5052422;28;20142;-58
2021/05/27 00:45:22;;;;;;;3.70;2.45;;;;;;;;;;5053171;28;20048;-57
2021/05/27 00:47:48;;;;;;;4.07;2.58;;;;;;;;;;5052902;28;20036;-58
2021/05/27 00:50:22;;;;;;;7.05;2.90;;;;;;;;;;5049432;28;20111;-58
2021/05/27 00:52:52;;;;;;;7.63;2.65;;;;;;;;;;5040851;28;20041;-59
2021/05/27 00:55:20;;;;;;;4.20;2.70;;;;;;;;;;5037038;28;20119;-58
2021/05/27 00:57:47;;;;;;;6.80;2.75;;;;;;;;;;5048024;28;20045;-59
2021/05/27 01:00:14;;;;;;;5.30;2.40;;;;;;;;;;5041321;28;20049;-59
2021/05/27 01:02:41;;;;;;;6.18;2.92;;;;;;;;;;5046606;28;20052;-58
2021/05/27 01:05:09;;;;;;;3.65;2.45;;;;;;;;;;5051186;28;20036;-57
2021/05/27 01:07:35;;;;;;;6.90;3.05;;;;;;;;;;5052565;28;20044;-58
2021/05/27 01:10:05;;;;;;;4.90;2.80;;;;;;;;;;5035432;28;20072;-58
2021/05/27 01:12:31;;;;;;;7.20;3.42;;;;;;;;;;5037746;28;20162;-58
2021/05/27 01:17:45;;;;;;;5.45;2.78;;;;;;;;;;5039754;28;20048;-58
2021/05/27 01:20:12;;;;;;;6.75;3.35;;;;;;;;;;5041048;28;20054;-58
2021/05/27 01:22:39;;;;;;;7.15;4.03;;;;;;;;;;5037856;28;20483;-58
2021/05/27 01:25:08;;;;;;;6.05;3.30;;;;;;;;;;5034653;28;20573;-58
2021/05/27 01:27:35;;;;;;;5.35;3.22;;;;;;;;;;5037962;28;20057;-58
2021/05/27 01:30:04;;;;;;;5.13;3.08;;;;;;;;;;5048938;28;20033;-59
2021/05/27 01:32:32;;;;;;;4.55;2.95;;;;;;;;;;5045786;28;20049;-58
2021/05/27 01:34:58;;;;;;;4.93;3.22;;;;;;;;;;5039417;28;20041;-59
2021/05/27 01:37:25;;;;;;;4.35;2.90;;;;;;;;;;5036795;28;20037;-59
2021/05/27 01:39:51;;;;;;;4.75;2.83;;;;;;;;;;5052868;28;20069;-58
2021/05/27 01:42:18;;;;;;;5.00;3.33;;;;;;;;;;5051017;28;20045;-58
2021/05/27 01:44:44;;;;;;;7.20;3.47;;;;;;;;;;5050665;28;20041;-58
2021/05/27 01:47:10;;;;;;;6.28;3.30;;;;;;;;;;5050628;28;20098;-58
2021/05/27 01:49:40;;;;;;;5.45;2.88;;;;;;;;;;5050733;28;20064;-58
2021/05/27 01:52:07;;;;;;;6.57;3.35;;;;;;;;;;5050777;28;20072;-59
2021/05/27 01:54:33;;;;;;;5.82;3.25;;;;;;;;;;5046877;28;20060;-59
2021/05/27 01:57:00;;;;;;;5.05;3.17;;;;;;;;;;5050270;28;20049;-58
2021/05/27 01:59:27;;;;;;;6.63;3.35;;;;;;;;;;5050641;28;20516;-58
2021/05/27 02:01:54;;;;;;;7.57;3.25;;;;;;;;;;5050442;28;20495;-59
2021/05/27 02:04:21;;;;;;;5.35;3.10;;;;;;;;;;5035853;28;20399;-58
2021/05/27 02:06:47;;;;;;;5.40;3.42;;;;;;;;;;5035849;28;20049;-58
2021/05/27 02:09:17;;;;;;;6.90;2.97;;;;;;;;;;5023305;28;20050;-58
2021/05/27 02:11:50;;;;;;;4.03;2.83;;;;;;;;;;5046736;28;20045;-58
2021/05/27 02:14:19;;;;;;;5.32;3.30;;;;;;;;;;5050378;28;20135;-58
2021/05/27 02:16:47;;;;;;;6.65;3.15;;;;;;;;;;5051653;28;20538;-58
2021/05/27 02:19:13;;;;;;;9.13;3.78;;;;;;;;;;5034192;28;20052;-58
2021/05/27 02:21:42;;;;;;;7.07;3.42;;;;;;;;;;5037524;28;20045;-58
2021/05/27 02:24:13;;;;;;;7.43;3.42;;;;;;;;;;5038962;28;20487;-58
2021/05/27 02:26:40;;;;;;;6.82;3.78;;;;;;;;;;5038679;28;20042;-58
2021/05/27 02:29:11;;;;;;;5.53;3.42;;;;;;;;;;5041324;28;20045;-58
2021/05/27 02:31:39;;;;;;;5.03;2.83;;;;;;;;;;5051403;28;20044;-59
2021/05/27 02:34:08;;;;;;;7.20;3.13;;;;;;;;;;5051425;28;20120;-58
2021/05/27 02:36:37;;;;;;;5.50;3.22;;;;;;;;;;5038201;28;20149;-58
2021/05/27 02:39:06;;;;;;;5.63;2.83;;;;;;;;;;5048627;28;20064;-58
2021/05/27 02:41:43;;;;;;;6.18;3.35;;;;;;;;;;5043113;28;20056;-58
2021/05/27 02:44:15;;;;;;;6.43;2.95;;;;;;;;;;5037458;28;20415;-58
2021/05/27 02:46:46;;;;;;;5.25;3.15;;;;;;;;;;5037841;28;20077;-58
2021/05/27 02:56:09;;;;;;;4.80;3.00;;;;;;;;;;5579242;22;20049;-58
2021/05/27 02:58:41;;;;;;;4.32;3.03;;;;;;;;;;5009197;28;20045;-58
2021/05/27 03:01:09;;;;;;;7.35;3.08;;;;;;;;;;5011902;28;20491;-59
2021/05/27 03:03:40;;;;;;;4.65;3.15;;;;;;;;;;5010329;28;20438;-58
2021/05/27 03:06:07;;;;;;;5.05;3.25;;;;;;;;;;5011327;28;20069;-59
2021/05/27 03:08:41;;;;;;;10.13;3.15;;;;;;;;;;5013809;28;20037;-58
2021/05/27 03:11:09;;;;;;;4.47;3.15;;;;;;;;;;5012721;28;20551;-59
2021/05/27 03:13:37;;;;;;;4.75;3.28;;;;;;;;;;5013453;28;20104;-59
2021/05/27 03:16:05;;;;;;;6.05;3.22;;;;;;;;;;5012124;28;20042;-59
2021/05/27 03:18:33;;;;;;;9.77;3.63;;;;;;;;;;5011531;28;20092;-58
2021/05/27 03:21:01;;;;;;;10.35;3.35;;;;;;;;;;5011916;28;20038;-59
2021/05/27 03:23:30;;;;;;;4.95;3.28;;;;;;;;;;5008770;28;20496;-58
2021/05/27 03:25:56;;;;;;;6.22;2.88;;;;;;;;;;5009377;28;20069;-58
2021/05/27 03:28:23;;;;;;;5.68;3.15;;;;;;;;;;5013829;28;20068;-58
2021/05/27 03:30:54;;;;;;;4.88;3.13;;;;;;;;;;5024434;28;20050;-59
2021/05/27 03:33:21;;;;;;;4.53;2.72;;;;;;;;;;5009078;28;20057;-58
2021/05/27 03:35:47;;;;;;;7.68;3.33;;;;;;;;;;5012762;28;20061;-59
2021/05/27 03:38:14;;;;;;;6.13;2.92;;;;;;;;;;5013483;28;22390;-58
2021/05/27 03:40:41;;;;;;;5.07;2.83;;;;;;;;;;5012140;28;20119;-59
2021/05/27 03:43:08;;;;;;;5.20;3.05;;;;;;;;;;5013687;28;20128;-58
2021/05/27 03:45:37;;;;;;;4.68;2.42;;;;;;;;;;5010203;28;20046;-59
2021/05/27 03:48:08;;;;;;;4.47;2.63;;;;;;;;;;5011619;28;20070;-59
2021/05/27 03:50:34;;;;;;;5.95;2.42;;;;;;;;;;5010315;28;20038;-59
2021/05/27 03:53:05;;;;;;;5.88;3.10;;;;;;;;;;5009925;28;20080;-59
2021/05/27 03:55:32;;;;;;;5.13;2.17;;;;;;;;;;5009739;28;20081;-59
2021/05/27 03:57:59;;;;;;;6.60;2.40;;;;;;;;;;5009130;28;20061;-59
2021/05/27 04:00:46;;;;;;;7.25;2.85;;;;;;;;;;5009412;28;20180;-59
2021/05/27 04:09:20;;;;;;;3.00;1.80;;;;;;;;;;5031422;28;20097;-59
2021/05/27 04:11:47;;;;;;;4.18;1.95;;;;;;;;;;5031490;28;20045;-59
2021/05/27 04:14:13;;;;;;;3.50;2.00;;;;;;;;;;5031519;28;20410;-59
2021/05/27 04:16:39;;;;;;;7.72;2.08;;;;;;;;;;5014075;28;20554;-59
2021/05/27 04:19:06;;;;;;;3.92;1.98;;;;;;;;;;5031993;28;20055;-59
2021/05/27 04:21:32;;;;;;;4.75;1.90;;;;;;;;;;5029151;28;20049;-59
2021/05/27 04:23:59;;;;;;;4.97;1.95;;;;;;;;;;5010867;28;20088;-58
2021/05/27 04:26:25;;;;;;;5.28;1.98;;;;;;;;;;5029645;28;20501;-59
2021/05/27 04:28:51;;;;;;;2.20;1.63;;;;;;;;;;5029070;28;20068;-59
2021/05/27 04:31:18;;;;;;;2.50;1.58;;;;;;;;;;5013853;28;20049;-58
2021/05/27 04:33:47;;;;;;;5.00;1.77;;;;;;;;;;5022998;28;20565;-59
2021/05/27 04:36:15;;;;;;;3.35;1.85;;;;;;;;;;5027785;28;20068;-59
2021/05/27 04:38:42;;;;;;;2.60;1.40;;;;;;;;;;5025869;28;20046;-59
2021/05/27 04:41:08;;;;;;;3.40;1.88;;;;;;;;;;5027531;28;20050;-59
2021/05/27 04:43:38;;;;;;;4.32;1.80;;;;;;;;;;5007863;28;20057;-59
2021/05/27 04:46:04;;;;;;;3.80;2.20;;;;;;;;;;5003582;28;20460;-59
2021/05/27 04:48:31;;;;;;;2.60;1.58;;;;;;;;;;5004940;28;20052;-58
2021/05/27 04:50:57;;;;;;;3.92;1.80;;;;;;;;;;5008010;28;20042;-59
2021/05/27 04:53:24;;;;;;;3.70;1.70;;;;;;;;;;5004843;28;20085;-59
2021/05/27 04:55:51;;;;;;;5.03;1.75;;;;;;;;;;4998922;28;20061;-59
2021/05/27 04:58:17;;;;;;;3.13;1.40;;;;;;;;;;5005696;28;20042;-59
2021/05/27 05:00:44;;;;;;;4.13;1.70;;;;;;;;;;5000608;28;20043;-59
2021/05/27 05:03:10;;;;;;;2.20;1.20;;;;;;;;;;5004994;28;20057;-59
2021/05/27 05:05:37;;;;;;;3.25;1.90;;;;;;;;;;5004618;28;20484;-59
2021/05/27 05:08:04;;;;;;;2.85;1.80;;;;;;;;;;5007573;28;20097;-59
2021/05/27 05:10:31;;;;;;;3.50;1.70;;;;;;;;;;5007448;28;20141;-59
2021/05/27 05:12:57;;;;;;;2.55;1.55;;;;;;;;;;5006553;28;20038;-59
2021/05/27 05:15:24;;;;;;;2.15;1.33;;;;;;;;;;4996723;28;20081;-57
2021/05/27 05:17:52;;;;;;;2.85;1.77;;;;;;;;;;4995122;28;20455;-59
2021/05/27 05:20:19;;;;;;;6.38;1.75;;;;;;;;;;4998201;28;20045;-59
2021/05/27 05:22:46;;;;;;;3.60;1.48;;;;;;;;;;4993024;28;20077;-58
2021/05/27 05:25:12;;;;;;;3.13;1.63;;;;;;;;;;4997405;28;20054;-59
2021/05/27 05:27:38;;;;;;;4.82;2.05;;;;;;;;;;5005868;28;20054;-59
2021/05/27 05:30:06;;;;;;;3.35;1.95;;;;;;;;;;5002738;28;20131;-59
2021/05/27 05:32:32;;;;;;;3.53;1.75;;;;;;;;;;5006046;28;20403;-59
2021/05/27 05:35:00;;;;;;;4.53;1.77;;;;;;;;;;5006544;28;20111;-59
2021/05/27 05:37:27;;;;;;;4.78;2.00;;;;;;;;;;5008480;28;20046;-59
2021/05/27 05:39:53;;;;;;;4.07;1.90;;;;;;;;;;5005016;28;20077;-58
2021/05/27 05:42:19;;;;;;;4.35;2.22;;;;;;;;;;5004167;28;20045;-59
2021/05/27 05:44:46;;;;;;;7.22;2.33;;;;;;;;;;5004411;28;20069;-59
2021/05/27 05:47:13;;;;;;;3.08;1.90;;;;;;;;;;5006053;28;20053;-59
2021/05/27 05:49:39;;;;;;;2.78;1.67;;;;;;;;;;5007174;28;20041;-59
2021/05/27 05:52:05;;;;;;;5.50;1.92;;;;;;;;;;5003191;28;20041;-59
2021/05/27 05:54:32;;;;;;;5.40;2.13;;;;;;;;;;5002199;28;20049;-59
2021/05/27 05:56:58;;;;;;;3.75;2.25;;;;;;;;;;5003920;28;20439;-58
2021/05/27 05:59:24;;;;;;;2.97;1.45;;;;;;;;;;4997755;28;20050;-58
2021/05/27 06:01:51;;;;;;;3.55;1.70;;;;;;;;;;5010487;28;20759;-59
2021/05/27 06:04:18;;;;;;;5.80;2.40;;;;;;;;;;5009301;28;20049;-59
2021/05/27 06:07:01;;;;;;;2.50;1.30;;;;;;;;;;4994853;28;20077;-59
2021/05/27 06:09:28;;;;;;;3.65;1.80;;;;;;;;;;4995579;28;20050;-59
2021/05/27 06:11:54;;;;;;;2.83;1.58;;;;;;;;;;4995485;28;20050;-59
2021/05/27 06:14:21;;;;;;;2.67;1.67;;;;;;;;;;5006450;28;20060;-59
2021/05/27 06:16:47;;;;;;;3.55;1.70;;;;;;;;;;5004908;28;20583;-59
2021/05/27 06:19:14;;;;;;;6.07;1.67;;;;;;;;;;5008983;28;20042;-59
2021/05/27 06:21:47;;;;;;;4.18;1.63;;;;;;;;;;4998700;28;20097;-60
2021/05/27 06:24:20;;;;;;;4.07;1.65;;;;;;;;;;4990449;28;20045;-59
2021/05/27 06:26:46;;;;;;;3.13;1.70;;;;;;;;;;5006665;28;20030;-59
2021/05/27 06:29:13;;;;;;;4.00;1.27;;;;;;;;;;4994236;28;20065;-59
2021/05/27 06:31:39;;;;;;;3.95;2.08;;;;;;;;;;5008545;28;20373;-59
2021/05/27 06:34:06;;;;;;;2.78;1.95;;;;;;;;;;4996568;28;20157;-58
2021/05/27 06:36:32;;;;;;;3.42;2.00;;;;;;;;;;5002692;28;20038;-59
2021/05/27 06:38:58;;;;;;;4.00;2.00;;;;;;;;;;5008521;28;20066;-59
2021/05/27 06:41:25;;;;;;;5.22;2.20;;;;;;;;;;5010783;28;20045;-59
2021/05/27 06:43:51;;;;;;;2.40;1.50;;;;;;;;;;5012667;28;20034;-59
2021/05/27 06:46:19;;;;;;;12.02;2.28;;;;;;;;;;5015357;28;20042;-59
2021/05/27 06:48:45;;;;;;;3.45;1.58;;;;;;;;;;5013395;28;20127;-59
2021/05/27 06:51:11;;;;;;;3.40;1.90;;;;;;;;;;5010918;28;20034;-59
2021/05/27 06:53:37;;;;;;;3.90;1.77;;;;;;;;;;5011512;28;20029;-59
2021/05/27 06:56:05;;;;;;;2.80;1.60;;;;;;;;;;5013206;28;20156;-57
2021/05/27 06:58:31;;;;;;;2.00;1.38;;;;;;;;;;5013794;28;20372;-59
2021/05/27 07:00:57;;;;;;;3.80;1.50;;;;;;;;;;5013244;28;20479;-60
2021/05/27 07:03:23;;;;;;;3.75;1.33;;;;;;;;;;5011007;28;20034;-59
2021/05/27 07:05:49;;;;;;;6.57;1.55;;;;;;;;;;5013021;28;20038;-60
2021/05/27 07:08:16;;;;;;;3.33;1.70;;;;;;;;;;5012136;28;20034;-59
2021/05/27 07:10:42;;;;;;;3.20;1.20;;;;;;;;;;5013383;28;20038;-59
2021/05/27 07:13:09;;;;;;;3.88;1.55;;;;;;;;;;5013706;28;20088;-59
2021/05/27 07:15:36;;;;;;;4.65;1.50;;;;;;;;;;5011689;28;20038;-59
2021/05/27 07:18:02;;;;;;;1.67;0.85;;;;;;;;;;5012279;28;20125;-59
2021/05/27 07:20:28;;;;;;;1.90;1.20;;;;;;;;;;5013536;28;20037;-60
2021/05/27 07:22:55;;;;;;;2.00;1.20;;;;;;;;;;5011812;28;20037;-59
2021/05/27 07:25:23;;;;;;;2.72;1.38;;;;;;;;;;5010899;28;20191;-59
2021/05/27 07:27:50;;;;;;;3.00;1.33;;;;;;;;;;5011251;28;20069;-60
2021/05/27 07:30:17;;;;;;;3.13;1.10;;;;;;;;;;5011585;28;20042;-59
2021/05/27 07:32:44;;;;;;;3.17;1.40;;;;;;;;;;5009566;28;20029;-59
2021/05/27 07:35:10;;;;;;;3.00;1.40;;;;;;;;;;5011115;28;20522;-59
2021/05/27 07:37:36;;;;;;;2.75;1.35;;;;;;;;;;5013361;28;20411;-59
2021/05/27 07:40:03;;;;;;;3.88;1.23;;;;;;;;;;5012441;28;20038;-59
2021/05/27 07:42:29;;;;;;;4.05;1.63;;;;;;;;;;5011245;28;20105;-59
2021/05/27 07:44:55;;;;;;;2.70;1.25;;;;;;;;;;5010882;28;20488;-59
2021/05/27 07:47:21;;;;;;;1.73;1.25;;;;;;;;;;5010549;28;20041;-59
2021/05/27 07:49:49;;;;;;;2.95;1.48;;;;;;;;;;5010836;28;20108;-59
2021/05/27 07:52:15;;;;;;;2.20;1.30;;;;;;;;;;5012280;28;20030;-59
2021/05/27 07:54:43;;;;;;;1.50;1.10;;;;;;;;;;5006787;28;20037;-59
2021/05/27 07:57:09;;;;;;;4.25;1.10;;;;;;;;;;5009694;28;20096;-59
2021/05/27 07:59:35;;;;;;;2.50;1.30;;;;;;;;;;5010797;28;20034;-59
2021/05/27 08:02:01;;;;;;;1.83;1.08;;;;;;;;;;5010935;28;20061;-59
2021/05/27 08:04:27;;;;;;;3.67;1.15;;;;;;;;;;5013252;28;20088;-59
2021/05/27 08:06:55;;;;;;;2.80;1.88;;;;;;;;;;5011122;28;20046;-59
2021/05/27 08:09:21;;;;;;;2.13;1.27;;;;;;;;;;5009745;28;20557;-59
2021/05/27 08:11:48;;;;;;;2.80;0.98;;;;;;;;;;5010337;28;20050;-59
2021/05/27 08:14:14;;;;;;;2.47;1.10;;;;;;;;;;5012502;28;20061;-59
2021/05/27 08:16:40;;;;;;;2.20;1.27;;;;;;;;;;5011484;28;20507;-59
2021/05/27 08:19:07;;;;;;;2.08;1.65;;;;;;;;;;5013613;28;20054;-58
2021/05/27 08:21:33;;;;;;;2.17;1.30;;;;;;;;;;5009974;28;20050;-59
2021/05/27 08:24:00;;;;;;;2.13;1.20;;;;;;;;;;5010128;28;20096;-59
2021/05/27 08:26:26;;;;;;;4.78;1.83;;;;;;;;;;5009743;28;20522;-59
2021/05/27 08:28:53;;;;;;;1.38;0.90;;;;;;;;;;5009821;28;20045;-59
2021/05/27 08:31:20;;;;;;;3.67;1.30;;;;;;;;;;5013272;28;20045;-59
2021/05/27 08:33:50;;;;;;;1.77;1.27;;;;;;;;;;5010017;28;20100;-59
2021/05/27 08:36:17;;;;;;;2.13;0.98;;;;;;;;;;5010891;28;20513;-59
2021/05/27 08:38:44;;;;;;;2.17;1.40;;;;;;;;;;5009866;28;20046;-59
2021/05/27 08:41:11;;;;;;;2.25;1.25;;;;;;;;;;5010314;28;20042;-59
2021/05/27 08:43:37;;;;;;;3.58;1.30;;;;;;;;;;5011972;28;20054;-59
2021/05/27 08:46:04;;;;;;;3.15;1.10;;;;;;;;;;5010923;28;20088;-60
2021/05/27 08:48:31;;;;;;;7.30;1.67;;;;;;;;;;5011218;28;20541;-59
2021/05/27 08:50:59;;;;;;;3.05;1.13;;;;;;;;;;5009441;28;20077;-59
2021/05/27 08:53:26;;;;;;;1.95;1.10;;;;;;;;;;5010282;28;20380;-59
2021/05/27 08:55:52;;;;;;;1.40;1.00;;;;;;;;;;5010368;28;20080;-59
2021/05/27 08:58:19;;;;;;;2.28;1.52;;;;;;;;;;5013105;28;20116;-59
2021/05/27 09:00:45;;;;;;;1.83;1.10;;;;;;;;;;5009851;28;20038;-59
2021/05/27 09:03:18;;;;;;;2.20;1.35;;;;;;;;;;5007819;28;20117;-60
2021/05/27 09:05:45;;;;;;;2.15;1.25;;;;;;;;;;5001788;28;20511;-59
2021/05/27 09:08:27;;;;;;;2.10;0.90;;;;;;;;;;5010054;28;20050;-60
2021/05/27 09:10:55;;;;;;;1.77;1.02;;;;;;;;;;4996365;28;20447;-60
2021/05/27 09:13:22;;;;;;;2.50;1.23;;;;;;;;;;5012260;28;20045;-59
2021/05/27 09:15:49;;;;;;;1.35;0.80;;;;;;;;;;5010552;28;20121;-59
2021/05/27 09:18:49;;;;;;;1.42;0.90;;;;;;;;;;5006721;28;20112;-59
2021/05/27 09:21:16;;;;;;;1.42;0.88;;;;;;;;;;4968143;28;20412;-60
2021/05/27 09:24:00;;;;;;;2.25;1.23;;;;;;;;;;4968463;28;20571;-60
2021/05/27 09:26:27;;;;;;;2.28;1.27;;;;;;;;;;4970154;28;20050;-60
2021/05/27 09:29:08;;;;;;;1.42;0.85;;;;;;;;;;4953352;28;20074;-60
2021/05/27 09:31:35;;;;;;;8.68;2.05;;;;;;;;;;4966740;28;20067;-59
2021/05/27 09:34:04;;;;;;;1.48;0.98;;;;;;;;;;4959822;28;20091;-58
2021/05/27 09:36:31;;;;;;;18.95;4.00;;;;;;;;;;4965510;28;20137;-59
2021/05/27 09:39:00;;;;;;;1.85;1.08;;;;;;;;;;4968551;28;20058;-59
2021/05/27 09:41:27;;;;;;;1.35;0.85;;;;;;;;;;4968193;28;20074;-59
2021/05/27 09:43:55;;;;;;;2.90;0.85;;;;;;;;;;4952789;28;20081;-59
2021/05/27 09:46:22;;;;;;;1.80;1.05;;;;;;;;;;4971651;28;20063;-59
2021/05/27 09:49:02;;;;;;;7.35;1.27;;;;;;;;;;4968236;28;21240;-59
2021/05/27 09:51:29;;;;;;;1.58;0.80;;;;;;;;;;4968012;28;20158;-59
2021/05/27 09:53:56;;;;;;;1.90;1.05;;;;;;;;;;4968071;28;20051;-59
2021/05/27 09:56:38;;;;;;;1.58;1.02;;;;;;;;;;4981197;28;20077;-59
2021/05/27 09:59:05;;;;;;;2.20;1.15;;;;;;;;;;4995202;28;20050;-59
2021/05/27 10:01:32;;;;;;;1.65;1.00;;;;;;;;;;5009867;28;20046;-59
2021/05/27 10:04:18;;;;;;;2.67;1.02;;;;;;;;;;5012356;28;20046;-59
2021/05/27 10:06:45;;;;;;;1.65;0.80;;;;;;;;;;5009762;28;20073;-59
2021/05/27 10:09:12;;;;;;;1.65;1.10;;;;;;;;;;5008780;28;20129;-59
2021/05/27 10:11:39;;;;;;;1.63;1.13;;;;;;;;;;5008478;28;20038;-59
2021/05/27 10:14:07;;;;;;;2.33;1.50;;;;;;;;;;5009131;28;20441;-60
2021/05/27 10:16:35;;;;;;;2.13;1.35;;;;;;;;;;5014569;28;20045;-59
2021/05/27 10:19:02;;;;;;;2.40;1.17;;;;;;;;;;5014551;28;20049;-59
2021/05/27 10:21:28;;;;;;;3.17;1.48;;;;;;;;;;5014377;28;20050;-59
2021/05/27 10:23:55;;;;;;;2.03;1.30;;;;;;;;;;5012388;28;20122;-60
2021/05/27 10:26:21;;;;;;;3.10;1.40;;;;;;;;;;5012470;28;20046;-60
2021/05/27 10:28:50;;;;;;;3.38;1.23;;;;;;;;;;5013812;28;20566;-60
2021/05/27 10:31:18;;;;;;;1.70;1.40;;;;;;;;;;5011217;28;20054;-60
2021/05/27 10:33:44;;;;;;;2.33;1.40;;;;;;;;;;5011104;28;20073;-60
2021/05/27 10:36:11;;;;;;;1.65;1.10;;;;;;;;;;5012601;28;20084;-60
2021/05/27 10:38:38;;;;;;;1.52;1.23;;;;;;;;;;5013760;28;20070;-59
2021/05/27 10:41:06;;;;;;;2.08;1.23;;;;;;;;;;5012659;28;20097;-59
2021/05/27 10:43:33;;;;;;;2.95;1.38;;;;;;;;;;5014863;28;20545;-60
2021/05/27 10:46:02;;;;;;;1.80;1.20;;;;;;;;;;5011485;28;20050;-60
2021/05/27 10:48:32;;;;;;;2.35;1.65;;;;;;;;;;5009636;28;20107;-60
2021/05/27 10:53:42;;;;;;;2.55;1.40;;;;;;;;;;5012660;28;20042;-61
2021/05/27 10:56:09;;;;;;;3.53;1.50;;;;;;;;;;4998429;28;20098;-61
2021/05/27 10:58:54;;;;;;;17.02;1.98;;;;;;;;;;5014294;28;20119;-60
2021/05/27 11:01:42;;;;;;;2.03;1.30;;;;;;;;;;5015964;28;20131;-60
2021/05/27 11:04:09;;;;;;;1.95;1.40;;;;;;;;;;5013214;28;20402;-60
2021/05/27 11:06:36;;;;;;;4.15;1.75;;;;;;;;;;5012003;28;20062;-61
2021/05/27 11:09:13;;;;;;;3.28;1.95;;;;;;;;;;5012038;28;20403;-61
2021/05/27 11:11:44;;;;;;;3.78;1.27;;;;;;;;;;5013180;28;20046;-61
2021/05/27 11:14:15;;;;;;;5.03;1.70;;;;;;;;;;5011349;28;20043;-61
2021/05/27 11:17:00;;;;;;;3.70;1.70;;;;;;;;;;5013934;28;20526;-60
2021/05/27 11:25:15;;;;;;;3.42;1.50;;;;;;;;;;5014363;28;20050;-60
2021/05/27 11:27:41;;;;;;;4.78;1.60;;;;;;;;;;5011062;28;20076;-60
2021/05/27 11:30:21;;;;;;;4.07;1.60;;;;;;;;;;5011780;28;20454;-60
2021/05/27 11:32:49;;;;;;;2.28;1.65;;;;;;;;;;5011898;28;20092;-60
2021/05/27 11:35:19;;;;;;;3.35;1.88;;;;;;;;;;5011830;28;20042;-60
2021/05/27 11:37:46;;;;;;;2.33;1.67;;;;;;;;;;5012521;28;20525;-61
2021/05/27 11:40:15;;;;;;;5.72;1.90;;;;;;;;;;5013898;28;20088;-61
2021/05/27 11:42:41;;;;;;;4.78;1.73;;;;;;;;;;5011573;28;20072;-61
2021/05/27 11:45:09;;;;;;;2.70;1.90;;;;;;;;;;5011085;28;20072;-60
2021/05/27 11:47:35;;;;;;;12.43;2.72;;;;;;;;;;5011524;28;20581;-61
2021/05/27 11:50:02;;;;;;;3.15;1.73;;;;;;;;;;5012717;28;20050;-61
2021/05/27 11:52:28;;;;;;;5.70;2.10;;;;;;;;;;5014152;28;20050;-61
2021/05/27 11:54:56;;;;;;;3.63;1.50;;;;;;;;;;5012314;28;20045;-60
2021/05/27 11:57:22;;;;;;;2.75;1.48;;;;;;;;;;5011335;28;20137;-60
2021/05/27 12:00:01;;;;;;;3.75;1.92;;;;;;;;;;5011229;28;20072;-60
2021/05/27 12:02:47;;;;;;;4.93;1.45;;;;;;;;;;5008925;28;20077;-60
2021/05/27 12:05:19;;;;;;;3.33;1.48;;;;;;;;;;4997930;28;20050;-60
2021/05/27 12:07:58;;;;;;;2.42;1.42;;;;;;;;;;5012227;28;20059;-61
2021/05/27 12:10:25;;;;;;;3.47;1.30;;;;;;;;;;5014744;28;20074;-61
2021/05/27 12:12:52;;;;;;;3.90;1.40;;;;;;;;;;5012655;28;20050;-61
2021/05/27 12:15:21;;;;;;;3.35;1.40;;;;;;;;;;5010626;28;20430;-60
2021/05/27 12:17:48;;;;;;;3.33;1.45;;;;;;;;;;5010702;28;20113;-60
2021/05/27 12:20:34;;;;;;;3.40;1.52;;;;;;;;;;5011110;28;20104;-60
2021/05/27 12:23:04;;;;;;;5.22;1.50;;;;;;;;;;5003199;28;20069;-60
2021/05/27 12:25:30;;;;;;;2.42;1.40;;;;;;;;;;5012530;28;20054;-60
2021/05/27 12:27:58;;;;;;;1.85;1.30;;;;;;;;;;5010760;28;20052;-60
2021/05/27 12:30:25;;;;;;;3.22;1.55;;;;;;;;;;5011125;28;20050;-61
2021/05/27 12:32:52;;;;;;;5.15;1.35;;;;;;;;;;5010466;28;20081;-61
2021/05/27 12:35:24;;;;;;;2.30;1.60;;;;;;;;;;5010425;28;20041;-61
2021/05/27 12:37:53;;;;;;;2.13;1.45;;;;;;;;;;5010240;28;20125;-61
2021/05/27 12:40:23;;;;;;;1.88;1.33;;;;;;;;;;5009483;28;20428;-61
2021/05/27 12:42:51;;;;;;;4.32;1.90;;;;;;;;;;5010497;28;20042;-61
2021/05/27 12:45:23;;;;;;;3.35;1.50;;;;;;;;;;5010305;28;20049;-61
2021/05/27 12:48:04;;;;;;;2.30;1.40;;;;;;;;;;5010459;28;20089;-61
2021/05/27 12:50:32;;;;;;;2.78;1.20;;;;;;;;;;5009820;28;20099;-61
2021/05/27 12:52:59;;;;;;;2.40;1.17;;;;;;;;;;5010541;28;20139;-62
2021/05/27 12:55:29;;;;;;;2.08;1.00;;;;;;;;;;5013565;28;20065;-60
2021/05/27 12:57:59;;;;;;;4.28;1.20;;;;;;;;;;5010781;28;20042;-61
2021/05/27 13:00:26;;;;;;;1.95;1.08;;;;;;;;;;5009718;28;20449;-60
2021/05/27 13:03:18;;;;;;;7.18;1.60;;;;;;;;;;5010051;28;20160;-60
2021/05/27 13:05:45;;;;;;;6.03;1.40;;;;;;;;;;5007323;28;20058;-60
2021/05/27 13:08:11;;;;;;;2.60;1.45;;;;;;;;;;5010895;28;20056;-61
2021/05/27 13:10:38;;;;;;;1.95;1.23;;;;;;;;;;5012058;28;20050;-61
2021/05/27 13:13:06;;;;;;;3.10;1.48;;;;;;;;;;5011152;28;20078;-60
2021/05/27 13:15:41;;;;;;;2.65;1.40;;;;;;;;;;5009704;28;20061;-60
2021/05/27 13:18:09;;;;;;;6.22;1.55;;;;;;;;;;5009373;28;20038;-60
2021/05/27 13:20:54;;;;;;;3.53;1.40;;;;;;;;;;5009415;28;20068;-60
2021/05/27 13:23:32;;;;;;;3.42;1.60;;;;;;;;;;5009524;28;20495;-60
2021/05/27 13:26:15;;;;;;;3.75;1.80;;;;;;;;;;4994479;28;20038;-60
2021/05/27 13:28:42;;;;;;;3.72;1.30;;;;;;;;;;5011386;28;20416;-61
2021/05/27 13:31:08;;;;;;;1.63;1.25;;;;;;;;;;5006867;28;20124;-61
2021/05/27 13:33:35;;;;;;;4.05;1.50;;;;;;;;;;5007167;28;20049;-61
2021/05/27 13:36:01;;;;;;;3.95;1.55;;;;;;;;;;5006451;28;20038;-61
2021/05/27 13:38:29;;;;;;;3.20;1.38;;;;;;;;;;5006649;28;20451;-61
2021/05/27 13:40:57;;;;;;;3.25;1.50;;;;;;;;;;4994825;28;20080;-61
2021/05/27 13:43:28;;;;;;;2.88;1.63;;;;;;;;;;5009206;28;20053;-60
2021/05/27 13:45:55;;;;;;;2.42;1.50;;;;;;;;;;5010428;28;20046;-61
2021/05/27 13:48:21;;;;;;;3.35;1.65;;;;;;;;;;5009167;28;20050;-61
2021/05/27 13:50:49;;;;;;;3.70;1.73;;;;;;;;;;5008949;28;20072;-61
2021/05/27 13:53:16;;;;;;;2.78;1.60;;;;;;;;;;5009400;28;20053;-60
2021/05/27 13:55:51;;;;;;;9.98;1.60;;;;;;;;;;5011207;28;20050;-61
2021/05/27 13:58:19;;;;;;;2.20;1.65;;;;;;;;;;5012456;28;20088;-60
2021/05/27 14:00:45;;;;;;;2.22;1.40;;;;;;;;;;5009237;28;20076;-61
2021/05/27 14:03:12;;;;;;;2.60;1.60;;;;;;;;;;5006272;28;20048;-61
2021/05/27 14:05:38;;;;;;;4.40;1.50;;;;;;;;;;5009144;28;20069;-61
2021/05/27 14:08:06;;;;;;;3.53;1.20;;;;;;;;;;5008794;28;20072;-61
2021/05/27 14:10:32;;;;;;;6.57;1.40;;;;;;;;;;5011941;28;20148;-60
2021/05/27 14:12:59;;;;;;;3.95;1.58;;;;;;;;;;5010199;28;20053;-61
2021/05/27 14:15:25;;;;;;;4.20;1.50;;;;;;;;;;5009587;28;20065;-61
2021/05/27 14:17:51;;;;;;;2.67;1.60;;;;;;;;;;5008603;28;20080;-60
2021/05/27 14:20:18;;;;;;;4.15;1.80;;;;;;;;;;5009049;28;20058;-60
2021/05/27 14:22:44;;;;;;;2.85;1.75;;;;;;;;;;5010895;28;20137;-59
2021/05/27 14:25:11;;;;;;;2.55;1.52;;;;;;;;;;5010812;28;20050;-59
2021/05/27 14:27:37;;;;;;;2.85;1.50;;;;;;;;;;5009912;28;20046;-60
2021/05/27 14:30:05;;;;;;;4.97;1.48;;;;;;;;;;5008959;28;20049;-60
2021/05/27 14:32:31;;;;;;;1.80;1.27;;;;;;;;;;5008791;28;20056;-60
2021/05/27 14:34:58;;;;;;;1.83;1.23;;;;;;;;;;5008835;28;20566;-59
2021/05/27 14:37:24;;;;;;;5.55;1.30;;;;;;;;;;5012773;28;20217;-58
2021/05/27 14:39:50;;;;;;;3.38;1.48;;;;;;;;;;5008723;28;20065;-59
2021/05/27 14:42:17;;;;;;;3.33;1.65;;;;;;;;;;5008450;28;20502;-60
2021/05/27 14:44:43;;;;;;;2.10;1.40;;;;;;;;;;5005978;28;20070;-60
2021/05/27 14:47:09;;;;;;;2.15;1.27;;;;;;;;;;5008575;28;20042;-58
2021/05/27 14:49:36;;;;;;;3.55;1.40;;;;;;;;;;5010884;28;20088;-59
2021/05/27 14:52:02;;;;;;;5.57;1.95;;;;;;;;;;5005563;28;20073;-60
2021/05/27 14:54:28;;;;;;;3.28;1.40;;;;;;;;;;5006497;28;20053;-60
2021/05/27 14:56:55;;;;;;;2.42;1.63;;;;;;;;;;5008796;28;20504;-59
2021/05/27 14:59:21;;;;;;;3.58;1.40;;;;;;;;;;5008589;28;20046;-60
2021/05/27 15:01:47;;;;;;;2.13;1.33;;;;;;;;;;5011203;28;20054;-60
2021/05/27 15:04:14;;;;;;;3.67;1.50;;;;;;;;;;5014706;28;20107;-59
2021/05/27 15:06:40;;;;;;;2.33;1.27;;;;;;;;;;5013109;28;20056;-60
2021/05/27 15:09:08;;;;;;;22.27;1.98;;;;;;;;;;5012121;28;20395;-59
2021/05/27 15:11:34;;;;;;;3.53;1.70;;;;;;;;;;5012014;28;20046;-58
2021/05/27 15:14:01;;;;;;;2.53;1.60;;;;;;;;;;5012024;28;20124;-59